KSDM/SDM METAR and TAF weather

Enter ICAO airport designator
Station Type Date Time Source
KSDM METAR 2024/06/15 23:53 UTC NOAA

KSDM 152353Z 28007KT 10SM CLR 24/15 A2979 RMK AO2 SLP084 T02390150 10256 20222 56009


Station Type Date Time Source
KSDM Decoded METAR 2024/06/15 23:53 UTC NOAA

San Diego, Brown Field Municipal Airport, CA, United States (KSDM) 32-34-31N 116-59-35W 159M
Jun 15, 2024 - 07:53 PM EDT / 2024.06.15 2353 UTC
Wind: from the W (280 degrees) at 8 MPH (7 KT):0
Visibility: 10 mile(s):0
Sky conditions: clear
Temperature: 75.0 F (23.9 C)
Dew Point: 59.0 F (15.0 C)
Relative Humidity: 57%
Pressure (altimeter): 29.79 in. Hg (1008 hPa)
Pressure tendency: 0.03 inches (0.9 hPa) lower than three hours ago
ob: KSDM 152353Z 28007KT 10SM CLR 24/15 A2979 RMK AO2 SLP084 T02390150 10256 20222 56009
cycle: 0

Station Type Date Time Source
KSDM TAF UTC NOAA

Error!

Example: see airport list